Terminal Aerodrome Forecast
Issued by NWS

Home | Current Version | Previous Version | Text Only | Print | Product List | Glossary On
Versions: 1 2 3 4 5 6 7 8 9 10 11 12 13 14 15 16 17 18 19 20 21 22 23 24 25 26 27 28 29 30 31 32 33 34 35 36 37 38
000
FTUS43 KJKL 150341 AAA
TAFSYM
TAF AMD
KSYM 150341Z 1504/1524 26006KT P6SM OVC035
     FM150500 26006KT P6SM OVC015
     FM150800 26006KT P6SM OVC008
     FM151000 27006KT P6SM OVC015
     FM151400 27006KT P6SM BKN025
     FM152100 VRB04KT P6SM BKN050=

USA.gov is the U.S. government's official web portal to all federal, state and local government web resources and services.